sensor_id;sensor_type;location;lat;lon;timestamp;P1;durP1;ratioP1;P2;durP2;ratioP2
6787;SDS011;3431;47.966;10.268;2023-08-30T00:00:14;3.10;;;2.90;;
6787;SDS011;3431;47.966;10.268;2023-08-30T00:00:38;3.38;;;3.10;;
6787;SDS011;3431;47.966;10.268;2023-08-30T00:00:59;3.38;;;3.08;;
6787;SDS011;3431;47.966;10.268;2023-08-30T00:01:22;3.50;;;3.20;;
6787;SDS011;3431;47.966;10.268;2023-08-30T00:01:43;3.28;;;3.08;;
6787;SDS011;3431;47.966;10.268;2023-08-30T00:02:05;3.13;;;2.92;;
6787;SDS011;3431;47.966;10.268;2023-08-30T00:02:27;3.60;;;3.30;;
6787;SDS011;3431;47.966;10.268;2023-08-30T00:02:49;3.33;;;3.03;;
6787;SDS011;3431;47.966;10.268;2023-08-30T00:03:11;3.10;;;2.90;;
6787;SDS011;3431;47.966;10.268;2023-08-30T00:03:33;3.35;;;3.15;;
6787;SDS011;3431;47.966;10.268;2023-08-30T00:03:54;3.47;;;3.17;;
6787;SDS011;3431;47.966;10.268;2023-08-30T00:04:16;3.25;;;2.97;;
6787;SDS011;3431;47.966;10.268;2023-08-30T00:04:38;3.70;;;3.40;;
6787;SDS011;3431;47.966;10.268;2023-08-30T00:05:00;3.53;;;3.22;;
6787;SDS011;3431;47.966;10.268;2023-08-30T00:05:23;3.30;;;3.00;;
6787;SDS011;3431;47.966;10.268;2023-08-30T00:05:45;3.30;;;3.00;;
6787;SDS011;3431;47.966;10.268;2023-08-30T00:06:06;3.47;;;3.17;;
6787;SDS011;3431;47.966;10.268;2023-08-30T00:06:28;3.53;;;3.22;;
6787;SDS011;3431;47.966;10.268;2023-08-30T00:06:52;3.47;;;3.17;;
6787;SDS011;3431;47.966;10.268;2023-08-30T00:07:13;3.15;;;2.90;;
6787;SDS011;3431;47.966;10.268;2023-08-30T00:07:35;3.10;;;2.90;;
6787;SDS011;3431;47.966;10.268;2023-08-30T00:07:57;3.40;;;3.10;;
6787;SDS011;3431;47.966;10.268;2023-08-30T00:08:18;3.35;;;3.13;;
6787;SDS011;3431;47.966;10.268;2023-08-30T00:08:42;3.40;;;3.10;;
6787;SDS011;3431;47.966;10.268;2023-08-30T00:09:03;3.13;;;2.92;;
6787;SDS011;3431;47.966;10.268;2023-08-30T00:09:26;3.00;;;2.80;;
6787;SDS011;3431;47.966;10.268;2023-08-30T00:09:47;3.22;;;3.03;;
6787;SDS011;3431;47.966;10.268;2023-08-30T00:10:09;3.40;;;3.10;;
6787;SDS011;3431;47.966;10.268;2023-08-30T00:10:31;3.38;;;3.08;;
6787;SDS011;3431;47.966;10.268;2023-08-30T00:10:53;3.58;;;3.28;;
6787;SDS011;3431;47.966;10.268;2023-08-30T00:11:16;3.47;;;3.17;;
6787;SDS011;3431;47.966;10.268;2023-08-30T00:11:38;3.30;;;3.00;;
6787;SDS011;3431;47.966;10.268;2023-08-30T00:11:59;3.50;;;3.20;;
6787;SDS011;3431;47.966;10.268;2023-08-30T00:12:21;3.40;;;3.08;;
6787;SDS011;3431;47.966;10.268;2023-08-30T00:12:43;3.83;;;3.28;;
6787;SDS011;3431;47.966;10.268;2023-08-30T00:13:05;3.20;;;3.00;;
6787;SDS011;3431;47.966;10.268;2023-08-30T00:13:26;3.40;;;3.10;;
6787;SDS011;3431;47.966;10.268;2023-08-30T00:13:49;3.50;;;3.20;;
6787;SDS011;3431;47.966;10.268;2023-08-30T00:14:12;3.40;;;3.10;;
6787;SDS011;3431;47.966;10.268;2023-08-30T00:14:33;3.20;;;3.00;;
6787;SDS011;3431;47.966;10.268;2023-08-30T00:14:55;3.10;;;2.90;;
6787;SDS011;3431;47.966;10.268;2023-08-30T00:15:17;3.30;;;3.10;;
6787;SDS011;3431;47.966;10.268;2023-08-30T00:15:39;3.40;;;3.10;;
6787;SDS011;3431;47.966;10.268;2023-08-30T00:16:02;3.60;;;3.30;;
6787;SDS011;3431;47.966;10.268;2023-08-30T00:16:23;3.35;;;3.05;;
6787;SDS011;3431;47.966;10.268;2023-08-30T00:16:45;3.42;;;3.13;;
6787;SDS011;3431;47.966;10.268;2023-08-30T00:17:06;3.70;;;3.40;;
6787;SDS011;3431;47.966;10.268;2023-08-30T00:17:28;3.65;;;3.35;;
6787;SDS011;3431;47.966;10.268;2023-08-30T00:17:50;3.70;;;3.40;;
6787;SDS011;3431;47.966;10.268;2023-08-30T00:18:12;3.40;;;3.10;;
6787;SDS011;3431;47.966;10.268;2023-08-30T00:18:34;3.47;;;3.17;;
6787;SDS011;3431;47.966;10.268;2023-08-30T00:18:55;3.58;;;3.28;;
6787;SDS011;3431;47.966;10.268;2023-08-30T00:19:17;3.60;;;3.30;;
6787;SDS011;3431;47.966;10.268;2023-08-30T00:19:38;3.58;;;3.28;;
6787;SDS011;3431;47.966;10.268;2023-08-30T00:20:00;3.25;;;2.95;;
6787;SDS011;3431;47.966;10.268;2023-08-30T00:20:23;3.10;;;2.80;;
6787;SDS011;3431;47.966;10.268;2023-08-30T00:20:45;3.30;;;3.00;;
6787;SDS011;3431;47.966;10.268;2023-08-30T00:21:06;3.28;;;2.97;;
6787;SDS011;3431;47.966;10.268;2023-08-30T00:21:28;3.22;;;2.92;;
6787;SDS011;3431;47.966;10.268;2023-08-30T00:21:49;3.37;;;3.07;;
6787;SDS011;3431;47.966;10.268;2023-08-30T00:22:12;3.50;;;3.20;;
6787;SDS011;3431;47.966;10.268;2023-08-30T00:22:33;3.70;;;3.40;;
6787;SDS011;3431;47.966;10.268;2023-08-30T00:22:55;3.72;;;3.42;;
6787;SDS011;3431;47.966;10.268;2023-08-30T00:23:16;3.47;;;3.17;;
6787;SDS011;3431;47.966;10.268;2023-08-30T00:23:38;3.58;;;3.28;;
6787;SDS011;3431;47.966;10.268;2023-08-30T00:23:59;3.70;;;3.40;;
6787;SDS011;3431;47.966;10.268;2023-08-30T00:24:22;3.40;;;3.10;;
6787;SDS011;3431;47.966;10.268;2023-08-30T00:24:45;3.55;;;3.25;;
6787;SDS011;3431;47.966;10.268;2023-08-30T00:25:07;3.50;;;3.20;;
6787;SDS011;3431;47.966;10.268;2023-08-30T00:25:28;3.47;;;3.17;;
6787;SDS011;3431;47.966;10.268;2023-08-30T00:25:50;3.70;;;3.40;;
6787;SDS011;3431;47.966;10.268;2023-08-30T00:26:12;3.80;;;3.50;;
6787;SDS011;3431;47.966;10.268;2023-08-30T00:26:34;3.60;;;3.30;;
6787;SDS011;3431;47.966;10.268;2023-08-30T00:26:58;3.45;;;3.15;;
6787;SDS011;3431;47.966;10.268;2023-08-30T00:27:19;3.28;;;3.08;;
6787;SDS011;3431;47.966;10.268;2023-08-30T00:27:41;3.60;;;3.30;;
6787;SDS011;3431;47.966;10.268;2023-08-30T00:28:05;3.60;;;3.30;;
6787;SDS011;3431;47.966;10.268;2023-08-30T00:28:28;3.60;;;3.30;;
6787;SDS011;3431;47.966;10.268;2023-08-30T00:28:50;3.50;;;3.20;;
6787;SDS011;3431;47.966;10.268;2023-08-30T00:29:11;3.10;;;2.90;;
6787;SDS011;3431;47.966;10.268;2023-08-30T00:29:34;3.65;;;3.35;;
6787;SDS011;3431;47.966;10.268;2023-08-30T00:29:57;3.60;;;3.30;;
6787;SDS011;3431;47.966;10.268;2023-08-30T00:30:18;3.80;;;3.50;;
6787;SDS011;3431;47.966;10.268;2023-08-30T00:30:40;3.45;;;3.15;;
6787;SDS011;3431;47.966;10.268;2023-08-30T00:31:01;3.58;;;3.28;;
6787;SDS011;3431;47.966;10.268;2023-08-30T00:31:23;3.45;;;3.15;;
6787;SDS011;3431;47.966;10.268;2023-08-30T00:31:45;3.00;;;2.80;;
6787;SDS011;3431;47.966;10.268;2023-08-30T00:32:07;3.40;;;3.10;;
6787;SDS011;3431;47.966;10.268;2023-08-30T00:32:28;3.50;;;3.20;;
6787;SDS011;3431;47.966;10.268;2023-08-30T00:32:50;3.77;;;3.47;;
6787;SDS011;3431;47.966;10.268;2023-08-30T00:33:12;4.18;;;3.22;;
6787;SDS011;3431;47.966;10.268;2023-08-30T00:33:34;3.03;;;2.83;;
6787;SDS011;3431;47.966;10.268;2023-08-30T00:33:56;3.28;;;3.00;;
6787;SDS011;3431;47.966;10.268;2023-08-30T00:34:17;3.85;;;3.55;;
6787;SDS011;3431;47.966;10.268;2023-08-30T00:34:39;3.90;;;3.60;;
6787;SDS011;3431;47.966;10.268;2023-08-30T00:35:00;3.78;;;3.47;;
6787;SDS011;3431;47.966;10.268;2023-08-30T00:35:23;3.90;;;3.60;;
6787;SDS011;3431;47.966;10.268;2023-08-30T00:35:45;3.67;;;3.38;;
6787;SDS011;3431;47.966;10.268;2023-08-30T00:36:06;3.90;;;3.60;;
6787;SDS011;3431;47.966;10.268;2023-08-30T00:36:28;4.15;;;3.75;;
6787;SDS011;3431;47.966;10.268;2023-08-30T00:36:51;3.97;;;3.58;;
6787;SDS011;3431;47.966;10.268;2023-08-30T00:37:12;3.63;;;3.22;;
6787;SDS011;3431;47.966;10.268;2023-08-30T00:37:34;3.50;;;3.20;;
6787;SDS011;3431;47.966;10.268;2023-08-30T00:37:55;4.03;;;3.70;;
6787;SDS011;3431;47.966;10.268;2023-08-30T00:38:17;3.75;;;3.45;;
6787;SDS011;3431;47.966;10.268;2023-08-30T00:38:39;3.63;;;3.33;;
6787;SDS011;3431;47.966;10.268;2023-08-30T00:39:01;3.47;;;3.17;;
6787;SDS011;3431;47.966;10.268;2023-08-30T00:39:23;3.35;;;3.05;;
6787;SDS011;3431;47.966;10.268;2023-08-30T00:39:46;3.45;;;3.15;;
6787;SDS011;3431;47.966;10.268;2023-08-30T00:40:08;3.85;;;3.45;;
6787;SDS011;3431;47.966;10.268;2023-08-30T00:40:37;3.88;;;3.58;;
6787;SDS011;3431;47.966;10.268;2023-08-30T00:41:00;3.27;;;3.07;;
6787;SDS011;3431;47.966;10.268;2023-08-30T00:41:21;3.88;;;3.58;;
6787;SDS011;3431;47.966;10.268;2023-08-30T00:41:43;4.40;;;4.00;;
6787;SDS011;3431;47.966;10.268;2023-08-30T00:42:05;3.92;;;3.63;;
6787;SDS011;3431;47.966;10.268;2023-08-30T00:42:29;3.83;;;3.53;;
6787;SDS011;3431;47.966;10.268;2023-08-30T00:42:50;3.83;;;3.50;;
6787;SDS011;3431;47.966;10.268;2023-08-30T00:43:13;3.72;;;3.42;;
6787;SDS011;3431;47.966;10.268;2023-08-30T00:43:35;3.58;;;3.28;;
6787;SDS011;3431;47.966;10.268;2023-08-30T00:43:56;3.70;;;3.40;;
6787;SDS011;3431;47.966;10.268;2023-08-30T00:44:19;3.92;;;3.53;;
6787;SDS011;3431;47.966;10.268;2023-08-30T00:44:40;3.60;;;3.30;;
6787;SDS011;3431;47.966;10.268;2023-08-30T00:45:02;3.95;;;3.65;;
6787;SDS011;3431;47.966;10.268;2023-08-30T00:45:24;4.05;;;3.75;;
6787;SDS011;3431;47.966;10.268;2023-08-30T00:45:48;3.97;;;3.67;;
6787;SDS011;3431;47.966;10.268;2023-08-30T00:46:11;4.07;;;3.78;;
6787;SDS011;3431;47.966;10.268;2023-08-30T00:46:34;4.30;;;3.90;;
6787;SDS011;3431;47.966;10.268;2023-08-30T00:46:56;4.00;;;3.57;;
6787;SDS011;3431;47.966;10.268;2023-08-30T00:47:17;3.70;;;3.40;;
6787;SDS011;3431;47.966;10.268;2023-08-30T00:47:39;3.70;;;3.40;;
6787;SDS011;3431;47.966;10.268;2023-08-30T00:48:00;3.90;;;3.60;;
6787;SDS011;3431;47.966;10.268;2023-08-30T00:48:22;4.30;;;3.90;;
6787;SDS011;3431;47.966;10.268;2023-08-30T00:48:45;4.28;;;3.67;;
6787;SDS011;3431;47.966;10.268;2023-08-30T00:49:07;3.70;;;3.40;;
6787;SDS011;3431;47.966;10.268;2023-08-30T00:49:29;4.10;;;3.70;;
6787;SDS011;3431;47.966;10.268;2023-08-30T00:49:51;3.95;;;3.58;;
6787;SDS011;3431;47.966;10.268;2023-08-30T00:50:13;3.70;;;3.38;;
6787;SDS011;3431;47.966;10.268;2023-08-30T00:50:35;3.92;;;3.53;;
6787;SDS011;3431;47.966;10.268;2023-08-30T00:50:57;3.97;;;3.67;;
6787;SDS011;3431;47.966;10.268;2023-08-30T00:51:19;4.07;;;3.70;;
6787;SDS011;3431;47.966;10.268;2023-08-30T00:51:42;4.30;;;3.90;;
6787;SDS011;3431;47.966;10.268;2023-08-30T00:52:06;4.40;;;4.00;;
6787;SDS011;3431;47.966;10.268;2023-08-30T00:52:29;3.92;;;3.63;;
6787;SDS011;3431;47.966;10.268;2023-08-30T00:52:51;4.15;;;3.75;;
6787;SDS011;3431;47.966;10.268;2023-08-30T00:53:13;4.28;;;3.88;;
6787;SDS011;3431;47.966;10.268;2023-08-30T00:53:35;4.22;;;3.80;;
6787;SDS011;3431;47.966;10.268;2023-08-30T00:53:57;4.57;;;4.18;;
6787;SDS011;3431;47.966;10.268;2023-08-30T00:54:20;4.45;;;4.05;;
6787;SDS011;3431;47.966;10.268;2023-08-30T00:54:42;4.57;;;3.97;;
6787;SDS011;3431;47.966;10.268;2023-08-30T00:55:06;4.05;;;3.65;;
6787;SDS011;3431;47.966;10.268;2023-08-30T00:55:28;3.63;;;3.33;;
6787;SDS011;3431;47.966;10.268;2023-08-30T00:55:50;4.15;;;3.85;;
6787;SDS011;3431;47.966;10.268;2023-08-30T00:56:11;4.40;;;4.00;;
6787;SDS011;3431;47.966;10.268;2023-08-30T00:56:33;4.28;;;3.88;;
6787;SDS011;3431;47.966;10.268;2023-08-30T00:56:56;4.10;;;3.75;;
6787;SDS011;3431;47.966;10.268;2023-08-30T00:57:18;4.25;;;3.90;;
6787;SDS011;3431;47.966;10.268;2023-08-30T00:57:40;4.40;;;4.00;;
6787;SDS011;3431;47.966;10.268;2023-08-30T00:58:02;4.25;;;3.85;;
6787;SDS011;3431;47.966;10.268;2023-08-30T00:58:23;4.07;;;3.70;;
6787;SDS011;3431;47.966;10.268;2023-08-30T00:58:47;4.43;;;4.03;;
6787;SDS011;3431;47.966;10.268;2023-08-30T00:59:11;4.18;;;3.78;;
6787;SDS011;3431;47.966;10.268;2023-08-30T00:59:33;3.90;;;3.60;;
6787;SDS011;3431;47.966;10.268;2023-08-30T00:59:55;3.95;;;3.65;;
6787;SDS011;3431;47.966;10.268;2023-08-30T01:00:17;4.00;;;3.60;;
6787;SDS011;3431;47.966;10.268;2023-08-30T01:00:39;4.10;;;3.70;;
6787;SDS011;3431;47.966;10.268;2023-08-30T01:01:01;4.00;;;3.70;;
6787;SDS011;3431;47.966;10.268;2023-08-30T01:01:23;4.50;;;4.10;;
6787;SDS011;3431;47.966;10.268;2023-08-30T01:01:44;4.43;;;4.03;;
6787;SDS011;3431;47.966;10.268;2023-08-30T01:02:06;4.57;;;4.18;;
6787;SDS011;3431;47.966;10.268;2023-08-30T01:02:29;4.20;;;3.80;;
6787;SDS011;3431;47.966;10.268;2023-08-30T01:02:52;4.32;;;3.92;;
6787;SDS011;3431;47.966;10.268;2023-08-30T01:03:15;4.30;;;3.90;;
6787;SDS011;3431;47.966;10.268;2023-08-30T01:03:37;4.57;;;4.18;;
6787;SDS011;3431;47.966;10.268;2023-08-30T01:03:59;4.40;;;4.03;;
6787;SDS011;3431;47.966;10.268;2023-08-30T01:04:21;4.15;;;3.75;;
6787;SDS011;3431;47.966;10.268;2023-08-30T01:04:43;4.18;;;3.78;;
6787;SDS011;3431;47.966;10.268;2023-08-30T01:05:07;4.28;;;3.88;;
6787;SDS011;3431;47.966;10.268;2023-08-30T01:05:30;4.20;;;3.80;;
6787;SDS011;3431;47.966;10.268;2023-08-30T01:05:52;4.40;;;4.00;;
6787;SDS011;3431;47.966;10.268;2023-08-30T01:06:13;4.32;;;3.92;;
6787;SDS011;3431;47.966;10.268;2023-08-30T01:06:35;4.15;;;3.75;;
6787;SDS011;3431;47.966;10.268;2023-08-30T01:06:57;4.60;;;4.20;;
6787;SDS011;3431;47.966;10.268;2023-08-30T01:07:19;4.43;;;4.03;;
6787;SDS011;3431;47.966;10.268;2023-08-30T01:07:40;3.97;;;3.63;;
6787;SDS011;3431;47.966;10.268;2023-08-30T01:08:02;3.95;;;3.65;;
6787;SDS011;3431;47.966;10.268;2023-08-30T01:08:24;4.10;;;3.70;;
6787;SDS011;3431;47.966;10.268;2023-08-30T01:08:46;4.10;;;3.70;;
6787;SDS011;3431;47.966;10.268;2023-08-30T01:09:08;4.15;;;3.75;;
6787;SDS011;3431;47.966;10.268;2023-08-30T01:09:30;4.10;;;3.70;;
6787;SDS011;3431;47.966;10.268;2023-08-30T01:09:52;4.80;;;4.30;;
6787;SDS011;3431;47.966;10.268;2023-08-30T01:10:15;5.00;;;4.20;;
6787;SDS011;3431;47.966;10.268;2023-08-30T01:10:40;4.38;;;3.97;;
6787;SDS011;3431;47.966;10.268;2023-08-30T01:11:11;4.40;;;4.00;;
6787;SDS011;3431;47.966;10.268;2023-08-30T01:11:43;4.43;;;4.03;;
6787;SDS011;3431;47.966;10.268;2023-08-30T01:12:10;4.53;;;4.13;;
6787;SDS011;3431;47.966;10.268;2023-08-30T01:12:37;4.38;;;3.97;;
6787;SDS011;3431;47.966;10.268;2023-08-30T01:13:03;4.50;;;4.10;;
6787;SDS011;3431;47.966;10.268;2023-08-30T01:13:32;4.20;;;3.80;;
6787;SDS011;3431;47.966;10.268;2023-08-30T01:14:00;4.20;;;3.80;;
6787;SDS011;3431;47.966;10.268;2023-08-30T01:14:29;4.60;;;4.20;;
6787;SDS011;3431;47.966;10.268;2023-08-30T01:14:56;4.30;;;3.90;;
6787;SDS011;3431;47.966;10.268;2023-08-30T01:15:30;4.40;;;4.00;;
6787;SDS011;3431;47.966;10.268;2023-08-30T01:15:53;4.43;;;4.03;;
6787;SDS011;3431;47.966;10.268;2023-08-30T01:16:16;4.50;;;4.10;;
6787;SDS011;3431;47.966;10.268;2023-08-30T01:16:41;4.35;;;3.95;;
6787;SDS011;3431;47.966;10.268;2023-08-30T01:17:03;4.28;;;3.88;;
6787;SDS011;3431;47.966;10.268;2023-08-30T01:17:26;4.75;;;4.28;;
6787;SDS011;3431;47.966;10.268;2023-08-30T01:17:51;4.35;;;3.95;;
6787;SDS011;3431;47.966;10.268;2023-08-30T01:18:16;4.40;;;4.00;;
6787;SDS011;3431;47.966;10.268;2023-08-30T01:18:39;4.38;;;3.97;;
6787;SDS011;3431;47.966;10.268;2023-08-30T01:19:04;4.43;;;4.03;;
6787;SDS011;3431;47.966;10.268;2023-08-30T01:19:41;4.90;;;4.43;;
6787;SDS011;3431;47.966;10.268;2023-08-30T01:20:10;4.22;;;3.83;;
6787;SDS011;3431;47.966;10.268;2023-08-30T01:20:36;4.43;;;4.03;;
6787;SDS011;3431;47.966;10.268;2023-08-30T01:21:00;4.25;;;3.85;;
6787;SDS011;3431;47.966;10.268;2023-08-30T01:21:27;4.57;;;4.18;;
6787;SDS011;3431;47.966;10.268;2023-08-30T01:21:56;4.43;;;4.03;;
6787;SDS011;3431;47.966;10.268;2023-08-30T01:22:29;4.70;;;4.30;;
6787;SDS011;3431;47.966;10.268;2023-08-30T01:23:05;4.53;;;4.13;;
6787;SDS011;3431;47.966;10.268;2023-08-30T01:23:34;4.68;;;4.25;;
6787;SDS011;3431;47.966;10.268;2023-08-30T01:24:03;4.07;;;3.78;;
6787;SDS011;3431;47.966;10.268;2023-08-30T01:24:32;4.47;;;4.07;;
6787;SDS011;3431;47.966;10.268;2023-08-30T01:25:07;4.20;;;3.90;;
6787;SDS011;3431;47.966;10.268;2023-08-30T01:25:43;4.10;;;3.78;;
6787;SDS011;3431;47.966;10.268;2023-08-30T01:26:10;4.18;;;3.88;;
6787;SDS011;3431;47.966;10.268;2023-08-30T01:26:38;4.57;;;4.10;;
6787;SDS011;3431;47.966;10.268;2023-08-30T01:27:10;4.30;;;3.90;;
6787;SDS011;3431;47.966;10.268;2023-08-30T01:27:32;4.53;;;4.10;;
6787;SDS011;3431;47.966;10.268;2023-08-30T01:27:57;4.75;;;4.25;;
6787;SDS011;3431;47.966;10.268;2023-08-30T01:28:22;4.65;;;4.25;;
6787;SDS011;3431;47.966;10.268;2023-08-30T01:28:47;4.43;;;4.03;;
6787;SDS011;3431;47.966;10.268;2023-08-30T01:29:10;4.83;;;4.43;;
6787;SDS011;3431;47.966;10.268;2023-08-30T01:29:33;4.73;;;4.33;;
6787;SDS011;3431;47.966;10.268;2023-08-30T01:29:59;4.45;;;4.05;;
6787;SDS011;3431;47.966;10.268;2023-08-30T01:30:23;5.20;;;4.43;;
6787;SDS011;3431;47.966;10.268;2023-08-30T01:30:47;4.55;;;4.15;;
6787;SDS011;3431;47.966;10.268;2023-08-30T01:31:10;4.13;;;3.83;;
6787;SDS011;3431;47.966;10.268;2023-08-30T01:31:34;4.00;;;3.70;;
6787;SDS011;3431;47.966;10.268;2023-08-30T01:31:57;4.28;;;3.88;;
6787;SDS011;3431;47.966;10.268;2023-08-30T01:32:19;4.85;;;4.45;;
6787;SDS011;3431;47.966;10.268;2023-08-30T01:32:41;4.55;;;4.15;;
6787;SDS011;3431;47.966;10.268;2023-08-30T01:33:04;4.82;;;4.38;;
6787;SDS011;3431;47.966;10.268;2023-08-30T01:33:26;4.90;;;4.50;;
6787;SDS011;3431;47.966;10.268;2023-08-30T01:33:49;4.80;;;4.40;;
6787;SDS011;3431;47.966;10.268;2023-08-30T01:34:12;4.68;;;4.20;;
6787;SDS011;3431;47.966;10.268;2023-08-30T01:34:35;4.50;;;4.10;;
6787;SDS011;3431;47.966;10.268;2023-08-30T01:34:59;4.88;;;4.43;;
6787;SDS011;3431;47.966;10.268;2023-08-30T01:35:22;4.45;;;4.05;;
6787;SDS011;3431;47.966;10.268;2023-08-30T01:35:45;4.60;;;4.20;;
6787;SDS011;3431;47.966;10.268;2023-08-30T01:36:08;5.07;;;4.57;;
6787;SDS011;3431;47.966;10.268;2023-08-30T01:36:30;4.80;;;4.40;;
6787;SDS011;3431;47.966;10.268;2023-08-30T01:36:52;4.82;;;4.43;;
6787;SDS011;3431;47.966;10.268;2023-08-30T01:37:14;4.97;;;4.57;;
6787;SDS011;3431;47.966;10.268;2023-08-30T01:37:36;5.18;;;4.70;;
6787;SDS011;3431;47.966;10.268;2023-08-30T01:38:01;4.63;;;4.22;;
6787;SDS011;3431;47.966;10.268;2023-08-30T01:38:24;5.05;;;4.60;;
6787;SDS011;3431;47.966;10.268;2023-08-30T01:38:49;4.65;;;4.25;;
6787;SDS011;3431;47.966;10.268;2023-08-30T01:39:12;5.40;;;4.40;;
6787;SDS011;3431;47.966;10.268;2023-08-30T01:39:36;4.68;;;4.28;;
6787;SDS011;3431;47.966;10.268;2023-08-30T01:40:02;4.65;;;4.25;;
6787;SDS011;3431;47.966;10.268;2023-08-30T01:40:26;4.88;;;4.47;;
6787;SDS011;3431;47.966;10.268;2023-08-30T01:40:49;5.00;;;4.50;;
6787;SDS011;3431;47.966;10.268;2023-08-30T01:41:12;4.93;;;4.50;;
6787;SDS011;3431;47.966;10.268;2023-08-30T01:41:35;4.97;;;4.53;;
6787;SDS011;3431;47.966;10.268;2023-08-30T01:41:58;4.85;;;4.45;;
6787;SDS011;3431;47.966;10.268;2023-08-30T01:42:22;4.72;;;4.32;;
6787;SDS011;3431;47.966;10.268;2023-08-30T01:42:45;4.38;;;3.97;;
6787;SDS011;3431;47.966;10.268;2023-08-30T01:43:09;5.20;;;4.75;;
6787;SDS011;3431;47.966;10.268;2023-08-30T01:43:31;4.93;;;4.47;;
6787;SDS011;3431;47.966;10.268;2023-08-30T01:43:56;4.68;;;4.28;;
6787;SDS011;3431;47.966;10.268;2023-08-30T01:44:19;4.95;;;4.55;;
6787;SDS011;3431;47.966;10.268;2023-08-30T01:44:42;5.07;;;4.68;;
6787;SDS011;3431;47.966;10.268;2023-08-30T01:45:05;5.20;;;4.70;;
6787;SDS011;3431;47.966;10.268;2023-08-30T01:45:31;4.80;;;4.40;;
6787;SDS011;3431;47.966;10.268;2023-08-30T01:45:56;4.88;;;4.47;;
6787;SDS011;3431;47.966;10.268;2023-08-30T01:46:19;4.90;;;4.50;;
6787;SDS011;3431;47.966;10.268;2023-08-30T01:46:42;4.53;;;4.13;;
6787;SDS011;3431;47.966;10.268;2023-08-30T01:47:06;5.00;;;4.60;;
6787;SDS011;3431;47.966;10.268;2023-08-30T01:47:28;4.80;;;4.40;;
6787;SDS011;3431;47.966;10.268;2023-08-30T01:47:51;5.00;;;4.60;;
6787;SDS011;3431;47.966;10.268;2023-08-30T01:48:15;5.28;;;4.78;;
6787;SDS011;3431;47.966;10.268;2023-08-30T01:48:38;4.80;;;4.35;;
6787;SDS011;3431;47.966;10.268;2023-08-30T01:49:01;4.90;;;4.50;;
6787;SDS011;3431;47.966;10.268;2023-08-30T01:49:23;4.80;;;4.40;;
6787;SDS011;3431;47.966;10.268;2023-08-30T01:49:47;4.45;;;4.05;;
6787;SDS011;3431;47.966;10.268;2023-08-30T01:50:09;4.25;;;3.85;;
6787;SDS011;3431;47.966;10.268;2023-08-30T01:50:32;4.97;;;4.47;;
6787;SDS011;3431;47.966;10.268;2023-08-30T01:50:54;4.85;;;4.35;;
6787;SDS011;3431;47.966;10.268;2023-08-30T01:51:19;4.72;;;4.32;;
6787;SDS011;3431;47.966;10.268;2023-08-30T01:51:42;4.70;;;4.30;;
6787;SDS011;3431;47.966;10.268;2023-08-30T01:52:04;4.85;;;4.45;;
6787;SDS011;3431;47.966;10.268;2023-08-30T01:52:27;4.45;;;4.05;;
6787;SDS011;3431;47.966;10.268;2023-08-30T01:52:48;4.55;;;4.15;;
6787;SDS011;3431;47.966;10.268;2023-08-30T01:53:11;4.00;;;3.63;;
6787;SDS011;3431;47.966;10.268;2023-08-30T01:53:34;4.65;;;4.25;;
6787;SDS011;3431;47.966;10.268;2023-08-30T01:53:57;4.65;;;4.25;;
6787;SDS011;3431;47.966;10.268;2023-08-30T01:54:19;4.88;;;4.47;;
6787;SDS011;3431;47.966;10.268;2023-08-30T01:54:41;4.80;;;4.40;;
6787;SDS011;3431;47.966;10.268;2023-08-30T01:55:05;4.60;;;4.20;;
6787;SDS011;3431;47.966;10.268;2023-08-30T01:55:28;4.72;;;4.32;;
6787;SDS011;3431;47.966;10.268;2023-08-30T01:55:53;4.97;;;4.50;;
6787;SDS011;3431;47.966;10.268;2023-08-30T01:56:14;5.15;;;4.75;;
6787;SDS011;3431;47.966;10.268;2023-08-30T01:56:36;5.10;;;4.68;;
6787;SDS011;3431;47.966;10.268;2023-08-30T01:56:58;4.45;;;4.05;;
6787;SDS011;3431;47.966;10.268;2023-08-30T01:57:19;4.32;;;3.92;;
6787;SDS011;3431;47.966;10.268;2023-08-30T01:57:43;4.32;;;3.92;;
6787;SDS011;3431;47.966;10.268;2023-08-30T01:58:05;4.57;;;4.18;;
6787;SDS011;3431;47.966;10.268;2023-08-30T01:58:27;4.60;;;4.20;;
6787;SDS011;3431;47.966;10.268;2023-08-30T01:58:49;4.70;;;4.30;;
6787;SDS011;3431;47.966;10.268;2023-08-30T01:59:12;4.38;;;3.97;;
6787;SDS011;3431;47.966;10.268;2023-08-30T01:59:33;4.85;;;4.45;;
6787;SDS011;3431;47.966;10.268;2023-08-30T01:59:56;5.28;;;4.78;;
6787;SDS011;3431;47.966;10.268;2023-08-30T02:00:17;4.50;;;4.10;;
6787;SDS011;3431;47.966;10.268;2023-08-30T02:00:39;4.55;;;4.15;;
6787;SDS011;3431;47.966;10.268;2023-08-30T02:01:01;5.07;;;4.60;;
6787;SDS011;3431;47.966;10.268;2023-08-30T02:01:23;5.18;;;4.68;;
6787;SDS011;3431;47.966;10.268;2023-08-30T02:01:44;5.85;;;5.05;;
6787;SDS011;3431;47.966;10.268;2023-08-30T02:02:06;5.57;;;4.27;;
6787;SDS011;3431;47.966;10.268;2023-08-30T02:02:28;5.00;;;4.50;;
6787;SDS011;3431;47.966;10.268;2023-08-30T02:02:50;5.43;;;4.93;;
6787;SDS011;3431;47.966;10.268;2023-08-30T02:03:14;5.47;;;4.97;;
6787;SDS011;3431;47.966;10.268;2023-08-30T02:03:36;5.40;;;4.90;;
6787;SDS011;3431;47.966;10.268;2023-08-30T02:03:57;5.13;;;4.63;;
6787;SDS011;3431;47.966;10.268;2023-08-30T02:04:21;4.90;;;4.50;;
6787;SDS011;3431;47.966;10.268;2023-08-30T02:04:43;4.90;;;4.32;;
6787;SDS011;3431;47.966;10.268;2023-08-30T02:05:07;5.53;;;4.78;;
6787;SDS011;3431;47.966;10.268;2023-08-30T02:05:30;5.22;;;4.82;;
6787;SDS011;3431;47.966;10.268;2023-08-30T02:05:57;5.28;;;4.78;;
6787;SDS011;3431;47.966;10.268;2023-08-30T02:06:26;5.18;;;4.68;;
6787;SDS011;3431;47.966;10.268;2023-08-30T02:06:56;5.50;;;5.00;;
6787;SDS011;3431;47.966;10.268;2023-08-30T02:07:22;5.15;;;4.65;;
6787;SDS011;3431;47.966;10.268;2023-08-30T02:07:51;5.45;;;4.95;;
6787;SDS011;3431;47.966;10.268;2023-08-30T02:08:17;5.23;;;4.73;;
6787;SDS011;3431;47.966;10.268;2023-08-30T02:08:44;4.95;;;4.55;;
6787;SDS011;3431;47.966;10.268;2023-08-30T02:09:14;4.90;;;4.47;;
6787;SDS011;3431;47.966;10.268;2023-08-30T02:09:40;5.28;;;4.78;;
6787;SDS011;3431;47.966;10.268;2023-08-30T02:10:08;5.25;;;4.75;;
6787;SDS011;3431;47.966;10.268;2023-08-30T02:10:34;5.70;;;5.00;;
6787;SDS011;3431;47.966;10.268;2023-08-30T02:10:59;5.18;;;4.70;;
6787;SDS011;3431;47.966;10.268;2023-08-30T02:11:26;5.78;;;5.22;;
6787;SDS011;3431;47.966;10.268;2023-08-30T02:11:49;5.25;;;4.75;;
6787;SDS011;3431;47.966;10.268;2023-08-30T02:12:14;5.57;;;4.88;;
6787;SDS011;3431;47.966;10.268;2023-08-30T02:12:39;5.22;;;4.72;;
6787;SDS011;3431;47.966;10.268;2023-08-30T02:13:07;5.78;;;5.28;;
6787;SDS011;3431;47.966;10.268;2023-08-30T02:13:31;5.45;;;4.95;;
6787;SDS011;3431;47.966;10.268;2023-08-30T02:13:57;5.57;;;5.07;;
6787;SDS011;3431;47.966;10.268;2023-08-30T02:14:19;5.68;;;5.18;;
6787;SDS011;3431;47.966;10.268;2023-08-30T02:14:42;5.65;;;5.15;;
6787;SDS011;3431;47.966;10.268;2023-08-30T02:15:07;5.97;;;5.47;;
6787;SDS011;3431;47.966;10.268;2023-08-30T02:15:31;7.10;;;5.85;;
6787;SDS011;3431;47.966;10.268;2023-08-30T02:15:54;6.10;;;5.50;;
6787;SDS011;3431;47.966;10.268;2023-08-30T02:16:17;5.35;;;4.85;;
6787;SDS011;3431;47.966;10.268;2023-08-30T02:16:39;5.25;;;4.75;;
6787;SDS011;3431;47.966;10.268;2023-08-30T02:17:03;5.55;;;5.05;;
6787;SDS011;3431;47.966;10.268;2023-08-30T02:17:27;5.22;;;4.72;;
6787;SDS011;3431;47.966;10.268;2023-08-30T02:17:50;5.38;;;4.88;;
6787;SDS011;3431;47.966;10.268;2023-08-30T02:18:12;5.30;;;4.80;;
6787;SDS011;3431;47.966;10.268;2023-08-30T02:18:34;5.28;;;4.78;;
6787;SDS011;3431;47.966;10.268;2023-08-30T02:18:57;6.03;;;5.53;;
6787;SDS011;3431;47.966;10.268;2023-08-30T02:19:20;5.65;;;5.15;;
6787;SDS011;3431;47.966;10.268;2023-08-30T02:19:43;5.65;;;5.15;;
6787;SDS011;3431;47.966;10.268;2023-08-30T02:20:06;5.63;;;5.13;;
6787;SDS011;3431;47.966;10.268;2023-08-30T02:20:28;5.15;;;4.65;;
6787;SDS011;3431;47.966;10.268;2023-08-30T02:20:49;5.13;;;4.63;;
6787;SDS011;3431;47.966;10.268;2023-08-30T02:21:11;5.80;;;5.15;;
6787;SDS011;3431;47.966;10.268;2023-08-30T02:21:34;6.07;;;5.13;;
6787;SDS011;3431;47.966;10.268;2023-08-30T02:21:56;5.90;;;5.20;;